Terminal Aerodrome Forecast
Issued by NWS

Current Version | Previous Version | Text Only | Print | Product List | Glossary Off
Versions: 1 2 3 4 5 6 7 8 9 10 11 12 13 14 15 16 17 18 19

000
FTUS41 KILN 190500
TAFLCK
TAF
KLCK 190540Z 1906/2006 33007KT P6SM SCT015 BKN035
      TEMPO 1906/1910 OVC020
     FM191300 28005KT P6SM SCT020
     FM192000 24007KT P6SM SKC=

USA.gov is the U.S. government's official web portal to all federal, state and local government web resources and services.